Time;durP1;ratioP1;P1;durP2;ratioP2;P2;SDS_P1;SDS_P2;PMS_P1;PMS_P2;Temp;Humidity;BMP_temperature;BMP_pressure;BME280_temperature;BME280_humidity;BME280_pressure;Samples;Min_cycle;Max_cycle;Signal;HPM_P1;HPM_P2
2023/12/15 15:21:58;;;;;;;1.00;1.00;;;;;;;8.87;30.50;93666.94;5109403;27;20368;-78
2023/12/15 15:24:24;;;;;;;1.17;1.02;;;;;;;8.82;30.72;93674.69;5109162;28;20522;-79
2023/12/15 15:26:50;;;;;;;1.05;1.02;;;;;;;8.76;30.73;93675.69;5091276;28;20036;-79
2023/12/15 15:29:15;;;;;;;1.10;1.10;;;;;;;8.66;31.55;93678.97;5109205;28;20112;-78
2023/12/15 15:31:42;;;;;;;1.08;1.00;;;;;;;8.59;30.85;93680.19;5108535;28;20433;-77
2023/12/15 15:34:07;;;;;;;1.02;1.00;;;;;;;8.50;31.19;93683.22;5108715;28;20041;-78
2023/12/15 15:36:36;;;;;;;1.15;1.08;;;;;;;8.43;31.51;93685.25;5109970;28;20491;-79
2023/12/15 15:39:04;;;;;;;1.10;1.00;;;;;;;8.39;31.56;93691.16;5109151;28;20036;-79
2023/12/15 15:41:30;;;;;;;1.20;1.10;;;;;;;8.28;31.96;93691.03;5109931;28;20121;-78
2023/12/15 15:43:56;;;;;;;1.00;1.00;;;;;;;8.28;31.88;93690.22;5108272;28;20043;-79
2023/12/15 15:46:21;;;;;;;1.20;1.10;;;;;;;8.10;32.14;93694.69;5109584;28;20048;-78
2023/12/15 15:48:47;;;;;;;0.90;0.90;;;;;;;8.07;32.10;93692.59;5109246;28;20043;-78
2023/12/15 15:51:22;;;;;;;0.90;0.90;;;;;;;8.00;32.73;93691.19;5108279;28;20016;-78
2023/12/15 15:53:49;;;;;;;0.90;0.90;;;;;;;7.94;32.85;93692.94;5108885;28;20446;-79
2023/12/15 15:56:15;;;;;;;1.20;1.10;;;;;;;7.86;32.77;93698.56;5108659;28;20036;-78
2023/12/15 15:58:41;;;;;;;1.25;1.15;;;;;;;7.76;33.15;93693.19;5108888;28;20081;-79
2023/12/15 16:01:06;;;;;;;1.65;1.10;;;;;;;7.69;33.00;93688.91;5109664;28;20020;-79
2023/12/15 16:03:32;;;;;;;1.40;1.17;;;;;;;7.68;33.25;93687.34;5109212;28;20048;-76
2023/12/15 16:05:57;;;;;;;1.00;1.00;;;;;;;7.63;33.41;93695.09;5109760;28;20111;-77
2023/12/15 16:08:23;;;;;;;1.85;1.10;;;;;;;7.53;33.23;93696.75;5109704;28;20040;-78
2023/12/15 16:10:50;;;;;;;1.35;1.10;;;;;;;7.56;33.47;93699.66;5105879;28;20050;-77
2023/12/15 16:13:15;;;;;;;1.20;1.10;;;;;;;7.44;32.97;93704.19;5108851;28;20095;-76
2023/12/15 16:15:41;;;;;;;1.02;1.00;;;;;;;7.43;33.61;93713.00;5088080;28;20066;-78
2023/12/15 16:18:07;;;;;;;1.27;1.00;;;;;;;7.38;33.46;93718.13;5103161;28;20028;-76
2023/12/15 16:20:33;;;;;;;1.10;1.10;;;;;;;7.28;33.65;93710.97;5108191;28;20059;-79
2023/12/15 16:22:58;;;;;;;1.33;1.08;;;;;;;7.25;33.80;93720.03;5107601;28;20048;-77
2023/12/15 16:25:24;;;;;;;1.25;1.13;;;;;;;7.13;33.86;93718.50;5107969;28;20024;-79
2023/12/15 16:27:49;;;;;;;0.90;0.90;;;;;;;7.14;34.19;93723.50;5107736;28;20048;-78
2023/12/15 16:30:15;;;;;;;1.40;1.30;;;;;;;7.25;33.49;93725.25;5106302;28;20030;-77
2023/12/15 16:32:41;;;;;;;1.45;1.13;;;;;;;7.12;33.67;93725.53;5095914;28;20040;-78
2023/12/15 16:35:06;;;;;;;1.25;1.10;;;;;;;7.08;34.39;93732.22;5075875;28;20044;-78
2023/12/15 16:37:32;;;;;;;1.88;1.30;;;;;;;7.05;34.36;93730.09;5095731;28;20057;-76
2023/12/15 16:39:57;;;;;;;1.10;1.00;;;;;;;7.05;34.15;93740.50;5095143;28;20031;-78
2023/12/15 16:42:23;;;;;;;1.20;1.08;;;;;;;6.92;34.35;93746.00;5095045;28;20058;-77
2023/12/15 16:44:50;;;;;;;1.20;1.10;;;;;;;7.00;34.61;93748.22;5092937;28;20028;-78
2023/12/15 16:47:17;;;;;;;1.45;1.13;;;;;;;6.87;34.74;93744.09;5094063;28;20429;-78
2023/12/15 16:49:43;;;;;;;1.00;1.00;;;;;;;6.90;34.30;93755.84;5092568;28;20031;-77
2023/12/15 16:52:09;;;;;;;1.48;1.20;;;;;;;6.87;34.59;93757.09;5074095;28;20056;-77
2023/12/15 16:54:35;;;;;;;1.33;1.20;;;;;;;6.77;34.61;93752.47;5074518;28;20111;-78
2023/12/15 16:57:01;;;;;;;1.70;1.10;;;;;;;6.75;34.99;93751.13;5073191;28;20136;-76
2023/12/15 16:59:26;;;;;;;2.25;1.02;;;;;;;6.83;34.50;93754.16;5092017;28;20085;-79
2023/12/15 17:01:52;;;;;;;1.95;1.17;;;;;;;6.76;34.63;93763.94;5094835;28;20032;-79
2023/12/15 17:04:18;;;;;;;1.70;1.30;;;;;;;6.73;34.71;93759.16;5093339;28;20024;-80
2023/12/15 17:06:45;;;;;;;1.27;1.10;;;;;;;6.63;35.34;93769.38;5096796;28;20384;-78
2023/12/15 17:09:10;;;;;;;1.15;1.05;;;;;;;6.50;35.56;93772.25;5095775;28;20060;-78
2023/12/15 17:11:36;;;;;;;1.35;1.00;;;;;;;6.39;35.48;93769.41;5095266;28;20024;-80
2023/12/15 17:14:02;;;;;;;1.00;1.00;;;;;;;6.35;35.58;93789.13;5095603;28;20475;-80
2023/12/15 17:16:27;;;;;;;1.40;0.93;;;;;;;6.32;35.75;93786.94;5094349;28;20040;-79
2023/12/15 17:18:53;;;;;;;1.48;0.95;;;;;;;6.33;35.19;93785.94;5095728;28;20210;-79
2023/12/15 17:21:23;;;;;;;1.05;0.95;;;;;;;6.34;35.30;93792.72;5078168;28;20124;-81
2023/12/15 17:23:49;;;;;;;1.92;1.40;;;;;;;6.37;35.43;93786.28;5093269;28;20047;-81
2023/12/15 17:26:17;;;;;;;3.25;1.58;;;;;;;6.29;35.84;93790.03;5093201;28;20358;-80
2023/12/15 17:28:45;;;;;;;1.92;1.27;;;;;;;6.26;35.53;93795.69;5091676;28;20036;-81
2023/12/15 17:31:12;;;;;;;3.83;1.90;;;;;;;6.23;35.81;93796.13;5088957;28;20102;-80
2023/12/15 17:33:37;;;;;;;3.00;1.77;;;;;;;6.22;35.82;93799.75;5092621;28;20039;-80
2023/12/15 17:36:04;;;;;;;2.22;1.50;;;;;;;6.18;35.76;93794.19;5092399;28;20036;-80
2023/12/15 17:38:30;;;;;;;5.45;2.10;;;;;;;6.12;35.89;93794.31;5093856;28;20205;-80
2023/12/15 17:40:56;;;;;;;2.35;1.40;;;;;;;6.02;36.19;93787.88;5090215;28;20623;-80
2023/12/15 17:43:23;;;;;;;2.20;1.40;;;;;;;6.06;35.90;93783.03;5082846;28;20038;-80
2023/12/15 17:45:48;;;;;;;2.53;1.40;;;;;;;5.98;36.15;93773.75;5074980;28;20060;-79
2023/12/15 17:48:15;;;;;;;5.35;1.30;;;;;;;5.96;36.23;93791.38;5074925;28;20509;-80
2023/12/15 17:50:42;;;;;;;1.75;1.15;;;;;;;5.89;36.78;93795.84;5076541;28;20035;-81
2023/12/15 17:53:10;;;;;;;1.90;1.40;;;;;;;5.79;37.38;93804.22;5088935;28;20032;-81
2023/12/15 17:55:36;;;;;;;1.77;1.10;;;;;;;5.70;37.60;93802.16;5093013;28;20514;-80
2023/12/15 17:58:03;;;;;;;1.50;0.95;;;;;;;5.61;37.52;93805.09;5092453;28;20035;-80
2023/12/15 18:00:29;;;;;;;1.08;1.00;;;;;;;5.52;38.48;93818.63;5091612;28;20040;-80
2023/12/15 18:02:55;;;;;;;2.00;1.38;;;;;;;5.42;38.55;93814.72;5091623;28;20040;-79
2023/12/15 18:05:24;;;;;;;4.75;1.30;;;;;;;5.35;38.29;93811.44;5095679;28;20498;-81
2023/12/15 18:07:50;;;;;;;2.83;1.70;;;;;;;5.32;38.24;93817.09;5094580;28;20032;-80
2023/12/15 18:10:20;;;;;;;3.83;1.95;;;;;;;5.29;38.55;93816.72;5094015;28;20487;-82
2023/12/15 18:12:46;;;;;;;4.03;2.17;;;;;;;5.25;38.70;93818.19;5094414;28;20036;-77
2023/12/15 18:15:13;;;;;;;4.18;2.10;;;;;;;5.25;38.71;93815.59;5086749;28;20491;-79
2023/12/15 18:17:42;;;;;;;4.05;2.40;;;;;;;5.21;38.61;93816.03;5076407;28;20040;-79
2023/12/15 18:20:08;;;;;;;3.53;1.80;;;;;;;5.19;38.72;93810.25;5092606;28;20051;-78
2023/12/15 18:22:36;;;;;;;4.03;1.50;;;;;;;5.16;38.56;93810.72;5091831;28;20032;-80
2023/12/15 18:25:02;;;;;;;2.10;1.45;;;;;;;5.11;38.97;93810.56;5094535;28;20097;-79
2023/12/15 18:27:29;;;;;;;2.28;1.40;;;;;;;5.08;39.50;93815.41;5093519;28;20028;-77
2023/12/15 18:29:56;;;;;;;2.40;1.30;;;;;;;5.01;39.84;93811.09;5088358;28;20521;-79
2023/12/15 18:32:21;;;;;;;2.90;1.30;;;;;;;4.96;39.52;93812.75;5092316;28;20427;-80
2023/12/15 18:34:47;;;;;;;1.08;0.90;;;;;;;4.94;40.17;93814.78;5074761;28;20050;-80
2023/12/15 18:37:15;;;;;;;2.70;1.40;;;;;;;4.90;40.12;93813.63;5086542;28;20334;-78
2023/12/15 18:39:40;;;;;;;1.60;1.20;;;;;;;4.87;39.87;93814.06;5078646;28;20028;-79
2023/12/15 18:42:06;;;;;;;0.90;0.88;;;;;;;4.85;40.47;93814.28;5092978;28;20085;-80
2023/12/15 18:44:31;;;;;;;1.25;1.00;;;;;;;4.81;40.80;93820.91;5091551;28;20039;-80
2023/12/15 18:46:58;;;;;;;1.70;1.08;;;;;;;4.74;41.09;93821.00;5084425;28;20052;-78
2023/12/15 18:49:23;;;;;;;2.28;1.20;;;;;;;4.69;40.84;93815.66;5077643;28;20434;-79
2023/12/15 18:51:49;;;;;;;1.15;1.00;;;;;;;4.64;41.65;93817.31;5090917;28;20032;-80
2023/12/15 18:54:15;;;;;;;2.35;1.30;;;;;;;4.63;41.35;93806.16;5092516;28;20040;-80
2023/12/15 18:56:42;;;;;;;2.00;1.30;;;;;;;4.64;41.31;93805.16;5081249;28;20449;-79
2023/12/15 18:59:08;;;;;;;1.85;1.20;;;;;;;4.63;41.48;93811.34;5092453;28;20027;-80
2023/12/15 19:01:34;;;;;;;6.13;1.58;;;;;;;4.59;41.46;93813.59;5093172;28;20047;-80
2023/12/15 19:03:59;;;;;;;1.63;1.20;;;;;;;4.59;41.41;93820.56;5092882;28;20043;-78
2023/12/15 19:06:25;;;;;;;1.35;1.10;;;;;;;4.63;40.57;93816.53;5093700;28;20097;-80
2023/12/15 19:08:52;;;;;;;2.75;1.30;;;;;;;4.66;40.26;93807.50;5093310;28;20539;-79
2023/12/15 19:11:29;;;;;;;4.65;2.58;;;;;;;4.71;40.58;93810.28;5076966;28;20035;-80
2023/12/15 19:13:56;;;;;;;3.25;1.90;;;;;;;4.69;41.06;93813.06;5093143;28;20154;-81
2023/12/15 19:16:22;;;;;;;1.73;1.20;;;;;;;4.65;41.24;93821.50;5091524;28;20239;-80
2023/12/15 19:18:52;;;;;;;1.42;1.15;;;;;;;4.60;41.22;93829.94;5093668;28;20043;-80
2023/12/15 19:21:18;;;;;;;1.25;1.10;;;;;;;4.53;41.58;93830.00;5092441;28;20707;-80
2023/12/15 19:23:44;;;;;;;1.40;1.20;;;;;;;4.50;41.81;93829.63;5101781;28;20039;-77
2023/12/15 19:26:10;;;;;;;4.65;1.20;;;;;;;4.44;42.21;93838.28;5079347;28;20387;-80
2023/12/15 19:28:35;;;;;;;1.75;1.40;;;;;;;4.40;42.64;93844.91;5072783;28;20040;-79
2023/12/15 19:31:01;;;;;;;2.17;1.40;;;;;;;4.37;42.41;93839.13;5088450;28;20028;-80
2023/12/15 19:33:27;;;;;;;2.65;1.48;;;;;;;4.35;42.15;93835.19;5090473;28;20442;-80
2023/12/15 19:35:55;;;;;;;2.97;1.80;;;;;;;4.38;41.14;93830.34;5089490;28;20103;-79
2023/12/15 19:38:21;;;;;;;2.50;1.50;;;;;;;4.47;40.43;93830.06;5076332;28;20452;-80
2023/12/15 19:40:46;;;;;;;2.20;1.50;;;;;;;4.57;40.30;93825.16;5090529;28;20020;-78
2023/12/15 19:43:12;;;;;;;8.23;3.72;;;;;;;4.62;40.48;93833.09;5091355;28;20032;-82
2023/12/15 19:45:38;;;;;;;2.60;1.58;;;;;;;4.64;40.64;93832.88;5092296;28;20030;-78
2023/12/15 19:48:04;;;;;;;2.58;1.35;;;;;;;4.64;40.83;93831.09;5073905;28;20521;-81
2023/12/15 19:50:30;;;;;;;1.23;1.10;;;;;;;4.70;40.00;93834.59;5092421;28;20024;-81
2023/12/15 19:52:57;;;;;;;2.85;1.48;;;;;;;4.77;40.03;93835.31;5091082;28;20529;-81
2023/12/15 19:55:23;;;;;;;2.00;1.35;;;;;;;4.81;39.48;93831.28;5091909;28;20034;-80
2023/12/15 19:57:49;;;;;;;2.67;1.20;;;;;;;4.83;39.62;93833.69;5092952;28;20042;-80
2023/12/15 20:00:15;;;;;;;1.30;1.20;;;;;;;4.83;40.06;93838.88;5093176;28;20316;-79
2023/12/15 20:02:41;;;;;;;1.10;1.00;;;;;;;4.89;38.87;93848.38;5092855;28;20036;-79
2023/12/15 20:05:07;;;;;;;2.15;1.40;;;;;;;4.90;38.71;93842.16;5093177;28;20031;-80
2023/12/15 20:07:33;;;;;;;3.17;1.70;;;;;;;4.96;38.88;93841.31;5093709;28;20521;-80
2023/12/15 20:09:59;;;;;;;2.15;1.50;;;;;;;5.03;38.66;93862.78;5097279;28;20031;-79
2023/12/15 20:12:27;;;;;;;3.45;1.60;;;;;;;4.97;38.78;93867.03;5096407;28;20115;-80
2023/12/15 20:14:54;;;;;;;2.92;1.60;;;;;;;4.98;38.96;93873.81;5096114;28;20024;-80
2023/12/15 20:17:20;;;;;;;3.35;1.58;;;;;;;5.01;39.15;93867.41;5096668;28;20046;-80
2023/12/15 20:19:47;;;;;;;5.07;1.83;;;;;;;4.96;39.36;93869.84;5095982;28;20024;-78
2023/12/15 20:22:12;;;;;;;4.55;2.22;;;;;;;4.95;39.25;93873.44;5095933;28;20130;-76
2023/12/15 20:24:38;;;;;;;2.47;1.58;;;;;;;4.94;39.53;93887.44;5095590;28;20051;-80
2023/12/15 20:27:09;;;;;;;5.13;2.70;;;;;;;4.86;39.64;93880.72;5095830;28;20040;-78
2023/12/15 20:29:35;;;;;;;1.88;1.30;;;;;;;4.95;38.73;93876.03;5096169;28;20145;-79
2023/12/15 20:32:00;;;;;;;1.50;1.30;;;;;;;4.90;38.94;93887.06;5096365;28;20115;-76
2023/12/15 20:34:26;;;;;;;3.35;1.70;;;;;;;4.84;39.49;93882.78;5096222;28;20090;-79
2023/12/15 20:36:53;;;;;;;1.90;1.30;;;;;;;4.86;39.07;93895.50;5095954;28;20032;-79
2023/12/15 20:39:18;;;;;;;1.98;1.30;;;;;;;4.89;38.60;93887.31;5096397;28;20085;-80
2023/12/15 20:41:44;;;;;;;2.38;1.58;;;;;;;4.90;38.53;93888.88;5095762;28;20088;-80
2023/12/15 20:44:10;;;;;;;3.05;1.60;;;;;;;4.86;38.48;93887.72;5094885;28;20191;-80
2023/12/15 20:46:35;;;;;;;2.30;1.60;;;;;;;4.82;39.33;93894.34;5096009;28;20137;-78
2023/12/15 20:49:01;;;;;;;3.92;2.20;;;;;;;4.78;39.22;93905.16;5095534;28;20052;-79
2023/12/15 20:51:26;;;;;;;2.88;1.80;;;;;;;4.72;40.09;93913.81;5095927;28;20024;-79
2023/12/15 20:53:52;;;;;;;3.05;1.83;;;;;;;4.66;40.10;93909.50;5095501;28;20042;-77
2023/12/15 20:56:25;;;;;;;1.65;1.20;;;;;;;4.68;38.89;93915.22;5095755;28;20449;-79
2023/12/15 20:58:50;;;;;;;1.27;1.17;;;;;;;4.75;38.50;93910.78;5095565;28;20047;-77
2023/12/15 21:01:16;;;;;;;1.38;1.27;;;;;;;4.84;37.77;93913.09;5095924;28;20024;-79
2023/12/15 21:03:41;;;;;;;1.42;1.10;;;;;;;4.86;38.00;93916.25;5094771;28;20040;-77
2023/12/15 21:06:16;;;;;;;1.55;1.10;;;;;;;4.86;38.10;93913.66;5096219;28;20020;-79
2023/12/15 21:08:42;;;;;;;1.90;1.40;;;;;;;4.85;38.25;93914.69;5094638;28;20455;-79
2023/12/15 21:11:08;;;;;;;1.90;1.40;;;;;;;4.80;38.53;93923.91;5095762;28;20020;-79
2023/12/15 21:13:33;;;;;;;3.10;1.50;;;;;;;4.75;38.77;93923.75;5094294;28;20119;-78
2023/12/15 21:15:59;;;;;;;1.67;1.30;;;;;;;4.71;38.63;93927.78;5095715;28;20278;-79
2023/12/15 21:18:24;;;;;;;1.17;1.08;;;;;;;4.68;38.29;93935.19;5095193;28;20050;-77
2023/12/15 21:20:50;;;;;;;1.98;1.40;;;;;;;4.68;38.75;93925.59;5095889;28;20127;-80
2023/12/15 21:23:15;;;;;;;2.75;1.70;;;;;;;4.74;37.95;93922.16;5094906;28;20043;-79
2023/12/15 21:25:42;;;;;;;3.20;1.80;;;;;;;4.72;38.29;93933.75;5094825;28;20051;-79
2023/12/15 21:28:08;;;;;;;2.53;1.40;;;;;;;4.67;38.20;93939.59;5077416;28;20047;-80
2023/12/15 21:30:33;;;;;;;2.30;1.40;;;;;;;4.64;38.32;93927.06;5094548;28;20024;-79
2023/12/15 21:32:59;;;;;;;2.47;1.50;;;;;;;4.64;38.46;93934.84;5094527;28;20131;-79
2023/12/15 21:35:26;;;;;;;1.30;1.10;;;;;;;4.63;37.71;93938.44;5094446;28;20111;-78
2023/12/15 21:37:52;;;;;;;2.47;1.40;;;;;;;4.75;37.00;93934.16;5092309;28;20443;-80
2023/12/15 21:40:17;;;;;;;2.05;1.40;;;;;;;4.79;36.90;93937.88;5092355;28;20111;-77
2023/12/15 21:42:43;;;;;;;1.58;1.13;;;;;;;4.78;37.36;93935.50;5093475;28;20040;-79
2023/12/15 21:45:09;;;;;;;1.60;1.40;;;;;;;4.72;37.67;93931.97;5094232;28;20087;-79
2023/12/15 21:47:35;;;;;;;2.42;1.40;;;;;;;4.66;38.09;93938.03;5092484;28;20545;-80
2023/12/15 21:50:00;;;;;;;1.15;0.98;;;;;;;4.59;38.47;93942.44;5093442;28;20062;-79
2023/12/15 21:52:32;;;;;;;0.90;0.80;;;;;;;4.50;38.88;93952.31;5093413;28;20039;-81
2023/12/15 21:54:59;;;;;;;1.65;1.30;;;;;;;4.44;38.95;93966.13;5093215;28;20058;-80
2023/12/15 21:57:25;;;;;;;1.55;1.30;;;;;;;4.42;39.00;93951.78;5093132;28;20084;-79
2023/12/15 21:59:50;;;;;;;2.40;1.35;;;;;;;4.32;39.74;93953.06;5094416;28;20490;-78
2023/12/15 22:02:16;;;;;;;1.35;1.10;;;;;;;4.26;40.24;93955.72;5094187;28;20399;-78
2023/12/15 22:04:41;;;;;;;1.10;1.00;;;;;;;4.22;39.96;93962.31;5093924;28;20096;-78
2023/12/15 22:07:07;;;;;;;1.73;1.30;;;;;;;4.18;39.80;93951.56;5094486;28;20028;-79
2023/12/15 22:09:32;;;;;;;2.85;1.65;;;;;;;4.26;38.46;93943.53;5094288;28;20042;-79
2023/12/15 22:11:59;;;;;;;1.90;1.20;;;;;;;4.29;39.00;93953.47;5092543;28;20051;-80
2023/12/15 22:14:25;;;;;;;1.17;1.00;;;;;;;4.28;39.71;93961.44;5093394;28;20044;-80
